Time;durP1;ratioP1;P1;durP2;ratioP2;P2;SDS_P1;SDS_P2;PMS_P1;PMS_P2;Temp;Humidity;BMP_temperature;BMP_pressure;BME280_temperature;BME280_humidity;BME280_pressure;Samples;Min_cycle;Max_cycle;Signal;HPM_P1;HPM_P2
2021/08/10 00:01:11;;;;;;;12.38;10.90;;;27.60;73.00;;;;;;4966224;28;20488;-89
2021/08/10 00:03:59;;;;;;;14.05;10.82;;;27.60;72.90;;;;;;4969439;28;20481;-90
2021/08/10 00:10:54;;;;;;;;;;;;;;;;;;;;;
2021/08/10 00:17:30;;;;;;;14.18;10.15;;;27.50;73.00;;;;;;4963234;28;20105;-92
2021/08/10 00:19:56;;;;;;;11.27;9.75;;;27.50;73.30;;;;;;4956355;28;20043;-91
2021/08/10 00:29:40;;;;;;;10.98;9.75;;;27.50;73.10;;;;;;4964269;28;20398;-89
2021/08/10 00:43:36;;;;;;;;;;;;;;;;;;;;;
2021/08/10 00:46:51;;;;;;;13.60;10.13;;;27.50;73.30;;;;;;5018713;28;20133;-95
2021/08/10 00:50:13;;;;;;;;;;;;;;;;;;;;;
2021/08/10 00:53:37;;;;;;;;;;;;;;;;;;;;;
2021/08/10 01:43:21;;;;;;;17.52;13.30;;;27.10;74.30;;;;;;5000778;28;20547;-90
2021/08/10 01:45:50;;;;;;;20.42;14.18;;;27.10;74.20;;;;;;4963440;28;20062;-90
2021/08/10 01:48:18;;;;;;;16.42;13.85;;;27.10;74.00;;;;;;4979418;28;20045;-92
2021/08/10 01:50:46;;;;;;;15.60;13.82;;;27.10;74.00;;;;;;4969538;28;20121;-95
2021/08/10 01:53:24;;;;;;;19.90;14.05;;;27.10;74.10;;;;;;4990294;28;20034;-95
2021/08/10 01:55:53;;;;;;;15.35;13.07;;;27.00;74.50;;;;;;4969048;28;20030;-94
2021/08/10 01:58:29;;;;;;;18.88;13.00;;;27.00;74.20;;;;;;4969497;28;20077;-96
2021/08/10 02:03:38;;;;;;;16.60;13.07;;;27.00;75.20;;;;;;5063492;23;20318;-93
2021/08/10 02:06:20;;;;;;;18.85;13.82;;;27.00;74.50;;;;;;4977822;28;20045;-92
2021/08/10 02:27:39;;;;;;;20.92;15.82;;;27.10;74.60;;;;;;4974877;28;20042;-91
2021/08/10 02:30:09;;;;;;;23.00;16.30;;;27.10;74.40;;;;;;4962509;28;20035;-88
2021/08/10 02:40:36;;;;;;;;;;;;;;;;;;;;;
2021/08/10 03:40:45;;;;;;;22.92;17.30;;;27.00;74.80;;;;;;989759;23;20362;-90
2021/08/10 03:50:44;;;;;;;24.42;17.45;;;27.10;75.20;;;;;;4993764;28;20179;-88
2021/08/10 03:53:20;;;;;;;;;;;;;;;;;;;;;
2021/08/10 03:55:51;;;;;;;21.35;16.38;;;27.10;75.00;;;;;;4996434;28;20038;-88
2021/08/10 03:58:27;;;;;;;21.20;16.63;;;27.00;75.00;;;;;;4977180;28;20045;-89
2021/08/10 04:01:05;;;;;;;;;;;;;;;;;;;;;
2021/08/10 04:07:29;;;;;;;22.65;17.48;;;27.10;75.70;;;;;;4990478;28;20038;-88
2021/08/10 04:09:55;;;;;;;23.35;17.63;;;27.00;75.20;;;;;;4962789;28;20030;-91
2021/08/10 04:12:23;;;;;;;26.30;18.40;;;27.10;75.20;;;;;;4961302;28;20026;-91
2021/08/10 04:14:50;;;;;;;23.75;17.10;;;27.10;75.10;;;;;;4976323;28;20133;-93
2021/08/10 04:17:58;;;;;;;22.10;16.50;;;27.10;75.10;;;;;;4976417;28;20121;-93
2021/08/10 04:20:24;;;;;;;21.80;18.15;;;27.10;75.20;;;;;;4958699;28;20096;-92
2021/08/10 04:22:51;;;;;;;20.55;16.45;;;27.10;75.30;;;;;;4976118;28;20088;-92
2021/08/10 04:25:18;;;;;;;24.70;17.30;;;27.20;75.50;;;;;;4960599;28;20062;-92
2021/08/10 04:27:44;;;;;;;21.13;16.65;;;27.30;75.40;;;;;;4976489;28;20041;-92
2021/08/10 04:30:14;;;;;;;22.58;16.83;;;27.40;75.00;;;;;;4977098;28;20428;-91
2021/08/10 04:32:40;;;;;;;21.73;15.52;;;27.50;74.60;;;;;;4964366;28;20045;-92
2021/08/10 04:35:15;;;;;;;22.17;16.00;;;27.50;74.40;;;;;;4976246;28;20497;-93
2021/08/10 04:37:41;;;;;;;22.27;15.90;;;27.50;74.00;;;;;;4959241;28;20398;-85
2021/08/10 04:40:13;;;;;;;25.35;15.48;;;27.50;73.60;;;;;;4971938;28;20502;-86
2021/08/10 04:43:02;;;;;;;21.15;14.55;;;27.60;73.60;;;;;;4977246;28;20092;-85
2021/08/10 04:45:46;;;;;;;;;;;;;;;;;;;;;
2021/08/10 04:49:14;;;;;;;15.52;12.93;;;27.70;73.90;;;;;;4988584;28;20122;-87
2021/08/10 04:52:33;;;;;;;;;;;;;;;;;;;;;
2021/08/10 04:55:35;;;;;;;16.45;12.50;;;27.90;72.80;;;;;;4956135;28;20034;-88
2021/08/10 04:58:26;;;;;;;19.42;13.00;;;27.90;72.90;;;;;;4972346;28;20035;-88
2021/08/10 05:00:54;;;;;;;14.63;11.90;;;27.90;72.90;;;;;;4972286;28;20035;-89
2021/08/10 05:03:44;;;;;;;;;;;;;;;;;;;;;
2021/08/10 05:06:10;;;;;;;19.35;13.02;;;28.00;73.20;;;;;;4966101;28;20413;-89
2021/08/10 05:09:11;;;;;;;16.33;12.48;;;28.10;72.70;;;;;;4975513;28;20564;-90
2021/08/10 05:11:56;;;;;;;;;;;;;;;;;;;;;
2021/08/10 05:14:31;;;;;;;16.40;11.77;;;28.20;72.30;;;;;;4974576;28;20034;-93
2021/08/10 05:17:00;;;;;;;15.02;11.10;;;28.30;72.30;;;;;;4978883;28;20049;-93
2021/08/10 05:19:56;;;;;;;16.77;11.98;;;28.30;72.20;;;;;;5012625;28;20056;-92
2021/08/10 05:22:34;;;;;;;16.27;11.95;;;28.30;71.90;;;;;;4961001;28;20046;-92
2021/08/10 05:25:10;;;;;;;14.07;11.82;;;28.30;71.90;;;;;;4977319;28;20038;-91
2021/08/10 05:38:48;;;;;;;;;;;;;;;;;;;;;
2021/08/10 05:41:18;;;;;;;18.88;11.65;;;28.50;71.80;;;;;;4970295;28;20062;-90
2021/08/10 05:43:48;;;;;;;13.25;11.15;;;28.50;71.80;;;;;;4958954;28;20084;-91
2021/08/10 05:46:40;;;;;;;13.07;11.30;;;28.60;72.30;;;;;;4959270;28;20031;-92
2021/08/10 05:49:20;;;;;;;14.63;11.73;;;28.60;72.40;;;;;;4978456;28;20034;-92
2021/08/10 05:52:26;;;;;;;13.98;11.35;;;28.70;72.10;;;;;;4963207;28;20404;-92
2021/08/10 05:55:25;;;;;;;12.95;11.43;;;28.70;71.80;;;;;;4964230;28;20034;-92
2021/08/10 05:57:59;;;;;;;17.08;10.95;;;28.80;71.60;;;;;;4962615;28;20043;-91
2021/08/10 06:00:40;;;;;;;;;;;;;;;;;;;;;
2021/08/10 06:04:14;;;;;;;16.25;10.82;;;28.80;71.40;;;;;;5013556;28;20065;-95
2021/08/10 06:06:56;;;;;;;15.95;11.65;;;28.80;71.60;;;;;;4989083;28;20133;-89
2021/08/10 06:09:35;;;;;;;15.35;10.85;;;28.90;70.60;;;;;;4978688;28;20522;-89
2021/08/10 06:12:06;;;;;;;16.02;10.82;;;28.90;70.10;;;;;;4963128;28;20081;-92
2021/08/10 06:14:36;;;;;;;15.80;10.40;;;28.90;69.40;;;;;;4978929;28;20062;-92
2021/08/10 06:17:02;;;;;;;15.15;10.98;;;28.90;69.40;;;;;;4962924;28;20026;-94
2021/08/10 06:19:30;;;;;;;12.02;10.13;;;28.90;69.90;;;;;;4963212;28;20081;-93
2021/08/10 06:21:59;;;;;;;12.82;10.07;;;28.80;70.10;;;;;;4978939;28;20034;-93
2021/08/10 06:24:31;;;;;;;15.77;10.65;;;28.80;70.00;;;;;;4962634;28;20042;-91
2021/08/10 06:27:25;;;;;;;13.68;9.85;;;28.80;70.00;;;;;;4977014;28;20066;-92
2021/08/10 06:29:54;;;;;;;12.55;9.50;;;28.90;69.80;;;;;;4977886;28;20038;-91
2021/08/10 06:32:21;;;;;;;11.00;8.73;;;28.90;69.80;;;;;;4973523;28;20057;-90
2021/08/10 06:34:50;;;;;;;12.55;8.27;;;28.90;68.50;;;;;;4960543;28;20501;-92
2021/08/10 06:38:13;;;;;;;11.18;9.00;;;29.00;68.60;;;;;;4976961;28;20425;-90
2021/08/10 06:44:20;;;;;;;11.88;8.77;;;29.00;68.20;;;;;;4974746;28;20257;-91
2021/08/10 06:50:30;;;;;;;15.07;9.02;;;29.10;68.90;;;;;;4958059;28;20035;-90
2021/08/10 06:53:18;;;;;;;13.18;9.90;;;29.20;68.60;;;;;;5004617;28;20033;-91
2021/08/10 06:55:51;;;;;;;13.02;8.50;;;29.20;68.10;;;;;;4976137;28;20061;-90
2021/08/10 06:59:02;;;;;;;13.77;9.60;;;29.20;67.90;;;;;;4979600;28;20061;-91
2021/08/10 07:01:58;;;;;;;13.18;9.00;;;29.20;67.90;;;;;;4997170;28;20034;-89
2021/08/10 07:04:35;;;;;;;10.80;8.67;;;29.20;67.90;;;;;;4964153;28;20093;-90
2021/08/10 07:07:11;;;;;;;16.58;9.18;;;29.20;67.90;;;;;;4975949;28;20274;-89
2021/08/10 07:09:43;;;;;;;13.00;7.90;;;29.20;67.10;;;;;;4960363;28;20053;-89
2021/08/10 07:12:12;;;;;;;12.85;8.50;;;29.30;66.90;;;;;;4976116;28;20038;-87
2021/08/10 07:14:42;;;;;;;12.18;8.32;;;29.40;66.40;;;;;;4956308;28;20117;-90
2021/08/10 07:17:09;;;;;;;14.55;8.50;;;29.40;66.10;;;;;;4960264;28;20030;-93
2021/08/10 07:19:36;;;;;;;11.00;8.52;;;29.40;65.90;;;;;;5188481;23;20257;-91
2021/08/10 07:22:13;;;;;;;11.45;8.73;;;29.40;66.00;;;;;;4980863;28;20030;-93
2021/08/10 07:24:39;;;;;;;13.82;8.30;;;29.40;66.00;;;;;;4964477;28;20583;-89
2021/08/10 07:27:09;;;;;;;10.98;7.75;;;29.30;66.00;;;;;;4977632;28;20074;-89
2021/08/10 07:29:53;;;;;;;13.35;7.97;;;29.30;65.90;;;;;;4960806;28;20030;-92
2021/08/10 07:32:22;;;;;;;12.02;7.95;;;29.40;65.70;;;;;;4961003;28;20035;-86
2021/08/10 07:34:49;;;;;;;12.45;8.02;;;29.40;65.60;;;;;;4975588;28;20034;-95
2021/08/10 07:37:20;;;;;;;14.18;7.75;;;29.40;65.00;;;;;;4968181;28;20053;-92
2021/08/10 07:39:46;;;;;;;8.60;6.97;;;29.40;65.30;;;;;;4982445;28;20039;-86
2021/08/10 07:42:18;;;;;;;13.77;7.53;;;29.40;65.30;;;;;;4960697;28;20026;-89
2021/08/10 07:44:44;;;;;;;9.18;7.60;;;29.40;65.40;;;;;;4941810;28;20053;-88
2021/08/10 07:47:10;;;;;;;14.05;7.82;;;29.40;65.20;;;;;;4978139;28;20086;-94
2021/08/10 07:49:38;;;;;;;12.25;7.43;;;29.40;65.00;;;;;;4964699;28;20523;-89
2021/08/10 07:52:05;;;;;;;8.75;7.28;;;29.40;65.00;;;;;;4960120;28;20041;-85
2021/08/10 07:54:31;;;;;;;13.57;7.50;;;29.40;65.20;;;;;;4959557;28;20045;-87
2021/08/10 07:56:59;;;;;;;12.48;7.63;;;29.50;65.20;;;;;;4975699;28;20416;-86
2021/08/10 07:59:28;;;;;;;13.07;7.70;;;29.40;65.00;;;;;;4954452;28;20479;-92
2021/08/10 08:02:12;;;;;;;10.35;7.40;;;29.40;64.70;;;;;;4977256;28;20042;-92
2021/08/10 08:04:53;;;;;;;10.07;7.07;;;29.40;64.90;;;;;;4959794;28;20042;-91
2021/08/10 08:07:34;;;;;;;9.35;7.20;;;29.40;64.80;;;;;;4974666;28;20039;-90
2021/08/10 08:11:04;;;;;;;;;;;;;;;;;;;;;
2021/08/10 08:13:34;;;;;;;10.23;7.30;;;29.40;64.70;;;;;;4985348;28;20081;-95
2021/08/10 08:16:44;;;;;;;8.73;7.03;;;29.40;64.20;;;;;;4960811;28;20531;-96
2021/08/10 08:19:16;;;;;;;8.63;6.95;;;29.40;63.30;;;;;;4933435;28;20022;-96
2021/08/10 08:24:39;;;;;;;10.32;7.78;;;29.40;62.50;;;;;;4966450;28;20115;-93
2021/08/10 08:27:06;;;;;;;8.60;7.22;;;29.40;63.20;;;;;;4963957;28;20067;-94
2021/08/10 08:29:33;;;;;;;9.98;6.80;;;29.40;64.00;;;;;;4954530;28;20504;-94
2021/08/10 08:31:59;;;;;;;12.25;6.85;;;29.50;64.50;;;;;;4955150;28;20085;-89
2021/08/10 08:34:26;;;;;;;9.57;7.13;;;29.50;64.30;;;;;;4954601;28;20046;-91
2021/08/10 08:36:53;;;;;;;10.65;7.03;;;29.60;64.40;;;;;;4954905;28;20074;-92
2021/08/10 08:39:20;;;;;;;10.05;7.25;;;29.60;64.00;;;;;;4987453;28;20050;-86
2021/08/10 08:41:46;;;;;;;8.20;6.57;;;29.60;64.10;;;;;;4968966;28;20042;-85
2021/08/10 08:44:16;;;;;;;9.10;7.43;;;29.60;64.10;;;;;;4969144;28;20796;-84
2021/08/10 08:46:45;;;;;;;9.10;7.32;;;29.60;64.10;;;;;;4969814;28;20129;-86
2021/08/10 08:49:15;;;;;;;12.40;7.55;;;29.60;64.50;;;;;;4954888;28;20182;-84
2021/08/10 08:51:47;;;;;;;11.35;7.28;;;29.60;64.80;;;;;;4974375;28;20031;-95
2021/08/10 08:54:22;;;;;;;8.43;7.15;;;29.60;65.50;;;;;;4978733;28;20035;-92
2021/08/10 08:56:49;;;;;;;;;;;29.60;64.00;;;;;;4964928;28;20471;-90
2021/08/10 08:59:15;;;;;;;11.05;7.45;;;29.70;63.80;;;;;;4981450;28;20483;-87
2021/08/10 09:01:42;;;;;;;13.77;7.85;;;29.70;63.00;;;;;;5392253;23;20051;-89
2021/08/10 09:04:15;;;;;;;9.80;7.43;;;29.60;63.40;;;;;;4959894;28;20537;-90
2021/08/10 09:06:48;;;;;;;8.45;7.68;;;29.60;63.90;;;;;;4949656;28;20054;-89
2021/08/10 09:09:20;;;;;;;8.90;7.57;;;29.60;63.80;;;;;;4945548;29;20035;-85
2021/08/10 09:11:52;;;;;;;9.55;7.60;;;29.50;64.20;;;;;;4936503;29;20038;-85
2021/08/10 09:14:19;;;;;;;12.65;7.78;;;29.60;65.80;;;;;;4953391;29;20094;-86
2021/08/10 09:17:08;;;;;;;13.63;7.40;;;29.60;64.90;;;;;;4936295;29;20074;-85
2021/08/10 09:19:45;;;;;;;12.68;7.90;;;29.60;65.30;;;;;;4920946;29;20106;-88
2021/08/10 09:22:26;;;;;;;13.35;8.07;;;29.70;65.30;;;;;;4936733;29;20138;-85
2021/08/10 09:25:00;;;;;;;8.43;7.63;;;29.60;65.60;;;;;;4939888;29;20039;-87
2021/08/10 09:27:38;;;;;;;11.95;7.57;;;29.60;65.20;;;;;;4955900;29;20421;-85
2021/08/10 09:30:15;;;;;;;12.48;7.72;;;29.50;65.70;;;;;;4943231;28;20038;-86
2021/08/10 09:33:00;;;;;;;13.68;8.10;;;29.60;66.40;;;;;;4960507;28;20448;-87
2021/08/10 09:35:36;;;;;;;13.27;8.23;;;29.60;66.70;;;;;;4940678;29;20145;-87
2021/08/10 09:38:17;;;;;;;;;;;;;;;;;;;;;
2021/08/10 09:40:52;;;;;;;10.32;8.02;;;29.60;66.30;;;;;;4960650;28;20039;-93
2021/08/10 09:43:40;;;;;;;12.82;8.15;;;29.60;65.90;;;;;;4965846;28;20141;-92
2021/08/10 09:46:16;;;;;;;12.50;8.32;;;29.60;66.20;;;;;;4949803;28;20049;-94
2021/08/10 09:49:14;;;;;;;;;;;;;;;;;;;;;
2021/08/10 09:51:45;;;;;;;9.82;8.57;;;29.50;66.10;;;;;;4959704;28;20039;-90
2021/08/10 09:54:23;;;;;;;14.55;8.65;;;29.50;66.60;;;;;;4950141;28;20069;-90
2021/08/10 09:57:21;;;;;;;14.35;8.60;;;29.50;67.10;;;;;;4964020;28;20047;-92
2021/08/10 09:59:57;;;;;;;10.05;8.27;;;29.60;67.10;;;;;;4950490;29;20039;-93
2021/08/10 10:02:45;;;;;;;12.95;8.52;;;29.60;67.10;;;;;;4957227;29;20142;-91
2021/08/10 10:05:46;;;;;;;12.63;8.63;;;29.50;66.60;;;;;;4939178;29;20047;-91
2021/08/10 10:08:27;;;;;;;12.32;8.27;;;29.50;66.10;;;;;;4926016;29;20031;-93
2021/08/10 10:11:06;;;;;;;10.45;8.75;;;29.50;66.40;;;;;;4938985;29;20039;-90
2021/08/10 10:13:39;;;;;;;10.50;8.10;;;29.50;66.90;;;;;;4937050;29;20039;-91
2021/08/10 10:16:07;;;;;;;10.77;8.13;;;29.40;66.60;;;;;;4940667;29;20046;-91
2021/08/10 10:18:47;;;;;;;;;;;;;;;;;;;;;
2021/08/10 10:21:27;;;;;;;10.23;7.93;;;29.50;66.30;;;;;;4951676;29;20035;-92
2021/08/10 10:23:59;;;;;;;12.40;8.65;;;29.50;66.20;;;;;;4956339;29;20046;-92
2021/08/10 10:26:36;;;;;;;13.52;8.05;;;29.50;65.70;;;;;;4947773;29;20512;-93
2021/08/10 10:29:16;;;;;;;11.15;8.45;;;29.50;65.60;;;;;;4973248;28;20031;-96
2021/08/10 10:31:43;;;;;;;11.93;8.07;;;29.40;65.50;;;;;;4950641;29;20040;-94
2021/08/10 10:39:31;;;;;;;12.45;7.40;;;29.50;64.90;;;;;;4993623;28;20025;-96
2021/08/10 10:42:08;;;;;;;10.85;7.40;;;29.50;64.90;;;;;;4995923;28;20010;-93
2021/08/10 10:44:58;;;;;;;13.63;8.30;;;29.50;64.70;;;;;;5324397;22;20021;-92
2021/08/10 10:47:43;;;;;;;11.52;7.00;;;29.40;64.30;;;;;;5222400;23;20456;-92
2021/08/10 10:50:16;;;;;;;10.52;7.55;;;29.40;64.10;;;;;;5033218;28;20034;-95
2021/08/10 10:52:59;;;;;;;13.93;6.78;;;29.30;64.30;;;;;;5041602;28;20018;-93
2021/08/10 10:55:33;;;;;;;12.27;7.05;;;29.30;64.30;;;;;;5021772;28;20040;-93
2021/08/10 10:58:00;;;;;;;13.87;7.73;;;29.40;65.00;;;;;;5023019;28;20045;-93
2021/08/10 11:00:27;;;;;;;12.07;7.60;;;29.40;64.50;;;;;;5130293;23;20060;-95
2021/08/10 11:03:12;;;;;;;9.55;7.05;;;29.40;64.50;;;;;;5010040;28;20091;-95
2021/08/10 11:05:41;;;;;;;11.20;7.13;;;29.40;64.10;;;;;;5005978;28;20046;-89
2021/08/10 11:08:39;;;;;;;12.63;7.25;;;29.40;64.40;;;;;;5015519;28;20034;-90
2021/08/10 11:12:06;;;;;;;13.60;6.95;;;29.30;64.70;;;;;;4999598;28;20419;-87
2021/08/10 11:14:36;;;;;;;10.82;7.15;;;29.30;65.00;;;;;;4930342;28;20034;-86
2021/08/10 11:17:12;;;;;;;11.55;7.95;;;29.30;64.90;;;;;;4947306;28;20124;-89
2021/08/10 11:19:43;;;;;;;10.45;7.07;;;29.30;64.70;;;;;;5013647;28;20034;-87
2021/08/10 11:22:15;;;;;;;11.35;7.22;;;29.30;64.60;;;;;;5013349;28;20057;-93
2021/08/10 11:24:47;;;;;;;10.93;7.18;;;29.40;64.80;;;;;;4996471;28;20037;-88
2021/08/10 11:27:32;;;;;;;10.98;7.50;;;29.30;64.40;;;;;;5012593;28;20037;-90
2021/08/10 11:30:00;;;;;;;9.07;7.10;;;29.30;64.30;;;;;;5013848;28;20550;-88
2021/08/10 11:32:46;;;;;;;13.65;7.00;;;29.20;64.30;;;;;;5016719;28;20153;-92
2021/08/10 11:35:25;;;;;;;13.45;7.10;;;29.20;65.20;;;;;;4999104;28;20095;-89
2021/08/10 11:38:13;;;;;;;11.18;7.35;;;29.20;65.60;;;;;;4985728;28;20512;-91
2021/08/10 11:40:52;;;;;;;11.15;7.88;;;29.30;65.80;;;;;;5010258;28;20416;-92
2021/08/10 11:43:42;;;;;;;10.00;7.60;;;29.40;66.00;;;;;;5020852;28;20046;-93
2021/08/10 11:46:27;;;;;;;12.68;7.65;;;29.40;66.00;;;;;;5014339;28;20041;-92
2021/08/10 11:52:51;;;;;;;;;;;;;;;;;;;;;
2021/08/10 11:56:00;;;;;;;11.63;7.97;;;29.30;67.00;;;;;;5005465;28;20041;-93
2021/08/10 11:59:05;;;;;;;;;;;;;;;;;;;;;
2021/08/10 12:02:28;;;;;;;12.77;7.60;;;29.40;67.20;;;;;;5027078;28;20136;-95
2021/08/10 12:05:06;;;;;;;9.05;7.75;;;29.40;67.10;;;;;;5032355;28;20067;-90
2021/08/10 12:07:45;;;;;;;14.00;7.32;;;29.40;67.20;;;;;;5017348;28;20037;-91
2021/08/10 12:10:11;;;;;;;12.57;7.70;;;29.40;67.20;;;;;;5036257;28;20047;-94
2021/08/10 12:12:46;;;;;;;13.40;7.72;;;29.40;67.30;;;;;;5001423;28;20114;-89
